Terminal Aerodrome Forecast
Issued by NWS

Home | Current Version | Previous Version | Text Only | Print | Product List | Glossary On
Versions: 1 2 3 4 5 6 7 8 9 10 11 12 13 14 15 16
060
FTUS45 KTFX 241123
TAFGTF
TAF
KGTF 241123Z 2412/2512 22006KT P6SM OVC025
     FM241500 24006KT P6SM SCT025 BKN040
     FM242200 28009KT P6SM VCSH SCT040 BKN080
     FM250600 21005KT P6SM SCT080 BKN200=

USA.gov is the U.S. government's official web portal to all federal, state and local government web resources and services.